createdAt,value
2023-06-05T00:00:59.543Z,98585.00
2023-06-05T00:03:28.178Z,98589.91
2023-06-05T00:05:55.599Z,98581.66
2023-06-05T00:08:22.944Z,98595.72
2023-06-05T00:10:49.875Z,98586.81
2023-06-05T00:13:17.332Z,98580.94
2023-06-05T00:15:44.326Z,98580.69
2023-06-05T00:18:11.347Z,98581.47
2023-06-05T00:20:38.390Z,98587.97
2023-06-05T00:23:05.405Z,98578.06
2023-06-05T00:25:32.217Z,98576.47
2023-06-05T00:27:59.005Z,98581.56
2023-06-05T00:30:25.875Z,98568.47
2023-06-05T00:32:52.844Z,98587.16
2023-06-05T00:35:19.787Z,98578.22
2023-06-05T00:37:47.996Z,98571.06
2023-06-05T00:40:15.478Z,98572.16
2023-06-05T00:42:42.285Z,98573.75
2023-06-05T00:45:09.596Z,98569.78
2023-06-05T00:47:37.185Z,98567.66
2023-06-05T00:50:04.726Z,98567.00
2023-06-05T00:52:33.739Z,98568.75
2023-06-05T00:55:02.301Z,98561.97
2023-06-05T00:57:29.479Z,98566.53
2023-06-05T00:59:56.520Z,98563.31
2023-06-05T01:02:23.563Z,98572.28
2023-06-05T01:04:50.621Z,98570.66
2023-06-05T01:07:18.904Z,98572.69
2023-06-05T01:09:45.905Z,98566.56
2023-06-05T01:12:18.514Z,98567.63
2023-06-05T01:14:49.233Z,98566.06
2023-06-05T01:17:20.277Z,98565.97
2023-06-05T01:19:49.584Z,98567.91
2023-06-05T01:22:17.131Z,98563.44
2023-06-05T01:24:43.922Z,98561.09
2023-06-05T01:27:19.733Z,98560.97
2023-06-05T01:30:08.449Z,98559.31
2023-06-05T01:33:03.455Z,98550.69
2023-06-05T01:35:34.005Z,98565.09
2023-06-05T01:38:03.703Z,98557.00
2023-06-05T01:40:32.085Z,98547.28
2023-06-05T01:43:01.255Z,98552.94
2023-06-05T01:45:28.779Z,98551.50
2023-06-05T01:47:58.017Z,98549.16
2023-06-05T01:50:25.864Z,98552.16
2023-06-05T01:52:53.439Z,98548.88
2023-06-05T01:55:25.197Z,98546.50
2023-06-05T01:57:52.505Z,98540.06
2023-06-05T02:00:19.811Z,98534.81
2023-06-05T02:02:48.662Z,98538.00
2023-06-05T02:05:16.827Z,98538.13
2023-06-05T02:07:54.352Z,98529.22
2023-06-05T02:10:21.982Z,98534.69
2023-06-05T02:12:49.673Z,98529.25
2023-06-05T02:15:16.832Z,98527.75
2023-06-05T02:17:54.096Z,98536.84
2023-06-05T02:20:24.616Z,98530.91
2023-06-05T02:22:53.101Z,98539.81
2023-06-05T02:25:20.337Z,98536.31
2023-06-05T02:27:48.994Z,98536.38
2023-06-05T02:30:16.283Z,98535.59
2023-06-05T02:32:44.912Z,98541.97
2023-06-05T02:35:12.854Z,98536.84
2023-06-05T02:37:44.583Z,98533.06
2023-06-05T02:40:14.241Z,98534.84
2023-06-05T02:42:41.706Z,98542.06
2023-06-05T02:45:09.830Z,98542.25
2023-06-05T02:47:37.385Z,98536.84
2023-06-05T02:50:05.367Z,98540.38
2023-06-05T02:52:36.736Z,98538.44
2023-06-05T02:55:10.767Z,98539.44
2023-06-05T02:57:42.419Z,98539.50
2023-06-05T03:00:15.765Z,98534.38
2023-06-05T03:02:43.285Z,98532.16
2023-06-05T03:05:11.092Z,98535.13
2023-06-05T03:07:38.096Z,98534.50
2023-06-05T03:10:08.791Z,98541.81
2023-06-05T03:12:35.635Z,98539.16
2023-06-05T03:15:02.804Z,98538.31
2023-06-05T03:17:31.702Z,98532.25
2023-06-05T03:19:58.548Z,98535.00
2023-06-05T03:22:26.274Z,98540.31
2023-06-05T03:24:53.304Z,98533.13
2023-06-05T03:27:20.349Z,98533.19
2023-06-05T03:29:47.217Z,98529.97
2023-06-05T03:32:13.990Z,98534.28
2023-06-05T03:34:43.942Z,98544.19
2023-06-05T03:37:11.055Z,98538.94
2023-06-05T03:39:39.450Z,98544.31
2023-06-05T03:42:10.156Z,98542.78
2023-06-05T03:44:36.964Z,98535.72
2023-06-05T03:47:04.738Z,98544.63
2023-06-05T03:49:32.904Z,98543.66
2023-06-05T03:52:04.659Z,98549.91
2023-06-05T03:54:34.715Z,98539.06
2023-06-05T03:57:01.919Z,98542.41
2023-06-05T03:59:29.718Z,98540.66
2023-06-05T04:02:00.960Z,98545.06
2023-06-05T04:04:27.725Z,98542.34
2023-06-05T04:06:57.730Z,98543.28
2023-06-05T04:09:26.845Z,98546.63
2023-06-05T04:11:54.771Z,98542.34
2023-06-05T04:14:21.940Z,98545.78
2023-06-05T04:16:49.356Z,98545.69
2023-06-05T04:19:22.094Z,98550.28
2023-06-05T04:21:53.205Z,98545.66
2023-06-05T04:24:20.114Z,98549.19
2023-06-05T04:26:48.685Z,98551.63
2023-06-05T04:29:16.983Z,98548.13
2023-06-05T04:31:48.380Z,98545.34
2023-06-05T04:34:15.664Z,98551.88
2023-06-05T04:36:42.538Z,98547.16
2023-06-05T04:39:17.644Z,98556.75
2023-06-05T04:41:47.857Z,98554.56
2023-06-05T04:44:23.441Z,98558.75
2023-06-05T04:46:50.630Z,98557.88
2023-06-05T04:49:17.806Z,98551.19
2023-06-05T04:51:45.299Z,98553.53
2023-06-05T04:54:13.367Z,98559.19
2023-06-05T04:56:41.008Z,98549.81
2023-06-05T04:59:09.092Z,98554.13
2023-06-05T05:01:36.426Z,98556.28
2023-06-05T05:04:03.796Z,98559.16
2023-06-05T05:06:32.111Z,98546.31
2023-06-05T05:08:59.285Z,98540.34
2023-06-05T05:11:27.330Z,98541.00
2023-06-05T05:13:54.306Z,98536.97
2023-06-05T05:16:22.072Z,98533.38
2023-06-05T05:18:48.995Z,98543.63
2023-06-05T05:21:16.816Z,98544.91
2023-06-05T05:23:43.656Z,98536.38
2023-06-05T05:26:11.475Z,98542.19
2023-06-05T05:28:38.200Z,98538.47
2023-06-05T05:31:05.808Z,98539.91
2023-06-05T05:33:35.064Z,98544.56
2023-06-05T05:36:03.576Z,98540.41
2023-06-05T05:38:30.764Z,98535.22
2023-06-05T05:40:57.574Z,98531.78
2023-06-05T05:43:24.372Z,98534.00
2023-06-05T05:45:51.287Z,98530.50
2023-06-05T05:48:18.498Z,98534.25
2023-06-05T05:50:45.554Z,98533.31
2023-06-05T05:53:12.300Z,98528.78
2023-06-05T05:55:39.535Z,98535.34
2023-06-05T05:58:06.363Z,98525.69
2023-06-05T06:00:33.227Z,98535.00
2023-06-05T06:03:00.243Z,98530.00
2023-06-05T06:05:27.222Z,98538.13
2023-06-05T06:07:53.923Z,98526.66
2023-06-05T06:10:21.001Z,98526.66
2023-06-05T06:12:47.879Z,98532.91
2023-06-05T06:15:15.261Z,98523.47
2023-06-05T06:17:42.133Z,98528.25
2023-06-05T06:20:12.457Z,98522.19
2023-06-05T06:22:39.848Z,98530.81
2023-06-05T06:25:08.197Z,98523.84
2023-06-05T06:27:36.116Z,98526.09
2023-06-05T06:30:03.749Z,98527.09
2023-06-05T06:32:30.917Z,98519.81
2023-06-05T06:34:58.259Z,98517.56
2023-06-05T06:37:25.603Z,98518.06
2023-06-05T06:39:52.406Z,98526.25
2023-06-05T06:42:19.435Z,98526.50
2023-06-05T06:44:56.961Z,98534.34
2023-06-05T06:47:25.815Z,98531.47
2023-06-05T06:49:52.981Z,98530.25
2023-06-05T06:52:22.600Z,98533.16
2023-06-05T06:54:51.516Z,98538.47
2023-06-05T06:57:18.748Z,98540.78
2023-06-05T06:59:46.727Z,98538.47
2023-06-05T07:02:18.953Z,98532.19
2023-06-05T07:04:45.922Z,98531.06
2023-06-05T07:07:15.230Z,98534.72
2023-06-05T07:09:43.594Z,98538.28
2023-06-05T07:12:21.518Z,98538.94
2023-06-05T07:14:48.360Z,98540.25
2023-06-05T07:17:15.099Z,98530.81
2023-06-05T07:19:41.974Z,98534.38
2023-06-05T07:22:08.765Z,98527.78
2023-06-05T07:24:36.647Z,98537.53
2023-06-05T07:27:04.580Z,98536.09
2023-06-05T07:29:31.530Z,98531.31
2023-06-05T07:31:59.571Z,98529.63
2023-06-05T07:34:29.369Z,98540.53
2023-06-05T07:36:57.574Z,98522.56
2023-06-05T07:39:24.526Z,98526.50
2023-06-05T07:41:51.555Z,98525.00
2023-06-05T07:44:19.988Z,98533.25
2023-06-05T07:46:48.592Z,98522.38
2023-06-05T07:49:16.971Z,98522.75
2023-06-05T07:51:44.720Z,98527.06
2023-06-05T07:54:12.857Z,98521.56
2023-06-05T07:56:40.653Z,98521.06
2023-06-05T07:59:08.425Z,98524.00
2023-06-05T08:01:39.772Z,98520.66
2023-06-05T08:04:08.793Z,98518.81
2023-06-05T08:06:38.952Z,98523.75
2023-06-05T08:09:07.245Z,98520.16
2023-06-05T08:11:34.085Z,98513.97
2023-06-05T08:14:00.891Z,98510.69
2023-06-05T08:16:27.734Z,98509.41
2023-06-05T08:18:54.527Z,98501.78
2023-06-05T08:21:21.393Z,98507.63
2023-06-05T08:23:48.124Z,98502.97
2023-06-05T08:26:14.993Z,98498.69
2023-06-05T08:28:42.732Z,98502.19
2023-06-05T08:31:10.890Z,98502.81
2023-06-05T08:33:39.015Z,98498.53
2023-06-05T08:36:06.534Z,98494.38
2023-06-05T08:38:34.658Z,98499.84
2023-06-05T08:41:06.530Z,98505.56
2023-06-05T08:43:33.401Z,98495.09
2023-06-05T08:46:00.364Z,98491.69
2023-06-05T08:48:27.335Z,98484.22
2023-06-05T08:50:56.004Z,98492.09
2023-06-05T08:53:26.682Z,98489.78
2023-06-05T08:55:55.847Z,98503.72
2023-06-05T08:58:23.165Z,98486.66
2023-06-05T09:00:50.325Z,98488.22
2023-06-05T09:03:19.589Z,98481.63
2023-06-05T09:05:47.190Z,98484.31
2023-06-05T09:08:15.697Z,98476.25
2023-06-05T09:10:42.416Z,98480.28
2023-06-05T09:13:10.588Z,98471.41
2023-06-05T09:15:38.060Z,98474.13
2023-06-05T09:18:09.803Z,98470.59
2023-06-05T09:20:41.802Z,98470.97
2023-06-05T09:23:28.245Z,98470.25
2023-06-05T09:25:59.905Z,98469.25
2023-06-05T09:28:27.508Z,98468.84
2023-06-05T09:30:54.221Z,98457.63
2023-06-05T09:33:21.096Z,98460.50
2023-06-05T09:35:47.876Z,98454.94
2023-06-05T09:38:30.951Z,98460.00
2023-06-05T09:41:04.530Z,98453.13
2023-06-05T09:43:31.611Z,98452.84
2023-06-05T09:45:58.457Z,98448.59
2023-06-05T09:48:26.741Z,98455.44
2023-06-05T09:50:54.510Z,98456.47
2023-06-05T09:53:22.615Z,98448.94
2023-06-05T09:55:49.608Z,98452.06
2023-06-05T09:58:18.734Z,98448.47
2023-06-05T10:00:47.327Z,98451.59
2023-06-05T10:03:18.757Z,98451.06
2023-06-05T10:05:49.564Z,98446.78
2023-06-05T10:08:17.447Z,98443.66
2023-06-05T10:10:44.429Z,98439.06
2023-06-05T10:13:12.642Z,98438.44
2023-06-05T10:15:43.383Z,98431.97
2023-06-05T10:18:10.949Z,98427.88
2023-06-05T10:20:38.245Z,98422.78
2023-06-05T10:23:06.526Z,98420.88
2023-06-05T10:25:35.952Z,98425.13
2023-06-05T10:28:32.132Z,98422.47
2023-06-05T10:31:27.516Z,98422.97
2023-06-05T10:34:31.911Z,98407.88
2023-06-05T10:37:36.826Z,98419.28
2023-06-05T10:40:05.947Z,98424.66
2023-06-05T10:42:32.905Z,98413.16
2023-06-05T10:45:00.638Z,98422.78
2023-06-05T10:47:51.990Z,98409.56
2023-06-05T10:50:19.071Z,98410.88
2023-06-05T10:52:50.494Z,98414.91
2023-06-05T10:55:18.295Z,98419.56
2023-06-05T10:58:04.093Z,98408.94
2023-06-05T11:00:34.351Z,98403.69
2023-06-05T11:03:02.334Z,98421.56
2023-06-05T11:05:30.583Z,98401.66
2023-06-05T11:08:15.202Z,98400.81
2023-06-05T11:11:04.892Z,98393.06
2023-06-05T11:13:57.164Z,98392.69
2023-06-05T11:16:31.679Z,98393.78
2023-06-05T11:19:16.816Z,98396.09
2023-06-05T11:22:03.966Z,98394.75
2023-06-05T11:24:31.503Z,98403.47
2023-06-05T11:26:58.240Z,98388.94
2023-06-05T11:29:26.926Z,98397.22
2023-06-05T11:31:54.737Z,98393.13
2023-06-05T11:34:21.981Z,98390.59
2023-06-05T11:36:51.795Z,98394.75
2023-06-05T11:39:20.264Z,98401.94
2023-06-05T11:41:49.230Z,98386.47
2023-06-05T11:44:16.415Z,98394.53
2023-06-05T11:46:44.685Z,98391.47
2023-06-05T11:49:28.240Z,98389.88
2023-06-05T11:51:56.032Z,98382.41
2023-06-05T11:54:35.210Z,98392.53
2023-06-05T11:57:13.215Z,98390.88
2023-06-05T11:59:40.242Z,98387.19
2023-06-05T12:02:07.877Z,98386.13
2023-06-05T12:04:35.790Z,98388.72
2023-06-05T12:07:03.849Z,98392.97
2023-06-05T12:09:31.052Z,98387.41
2023-06-05T12:12:08.160Z,98396.44
2023-06-05T12:14:35.775Z,98393.84
2023-06-05T12:17:10.903Z,98403.69
2023-06-05T12:19:38.140Z,98402.72
2023-06-05T12:22:06.694Z,98392.28
2023-06-05T12:24:34.869Z,98393.59
2023-06-05T12:27:05.043Z,98388.97
2023-06-05T12:29:34.156Z,98392.25
2023-06-05T12:32:03.366Z,98385.63
2023-06-05T12:34:58.157Z,98383.56
2023-06-05T12:37:45.607Z,98382.91
2023-06-05T12:40:14.937Z,98384.94
2023-06-05T12:42:46.686Z,98381.06
2023-06-05T12:45:13.859Z,98375.69
2023-06-05T12:47:41.923Z,98385.78
2023-06-05T12:50:13.205Z,98389.66
2023-06-05T12:52:42.141Z,98380.53
2023-06-05T12:55:09.858Z,98377.81
2023-06-05T12:57:36.655Z,98377.94
2023-06-05T13:00:15.121Z,98374.66
2023-06-05T13:02:46.282Z,98366.44
2023-06-05T13:05:13.533Z,98369.00
2023-06-05T13:07:40.885Z,98367.22
2023-06-05T13:10:08.716Z,98364.69
2023-06-05T13:12:35.626Z,98369.38
2023-06-05T13:15:03.667Z,98370.28
2023-06-05T13:17:34.446Z,98364.44
2023-06-05T13:20:01.466Z,98370.00
2023-06-05T13:22:28.434Z,98368.41
2023-06-05T13:24:55.391Z,98360.75
2023-06-05T13:27:22.297Z,98356.94
2023-06-05T13:29:49.396Z,98350.50
2023-06-05T13:32:16.581Z,98345.06
2023-06-05T13:34:43.359Z,98354.38
2023-06-05T13:37:14.467Z,98348.97
2023-06-05T13:39:41.685Z,98349.88
2023-06-05T13:42:09.671Z,98346.25
2023-06-05T13:44:36.475Z,98349.22
2023-06-05T13:47:04.397Z,98344.50
2023-06-05T13:49:32.305Z,98345.16
2023-06-05T13:51:59.153Z,98349.72
2023-06-05T13:54:25.974Z,98353.47
2023-06-05T13:56:52.835Z,98347.91
2023-06-05T13:59:19.773Z,98346.28
2023-06-05T14:01:46.583Z,98349.47
2023-06-05T14:04:13.439Z,98332.41
2023-06-05T14:06:42.794Z,98340.16
2023-06-05T14:09:09.843Z,98339.59
2023-06-05T14:11:37.860Z,98335.84
2023-06-05T14:14:04.830Z,98335.59
2023-06-05T14:16:32.154Z,98339.53
2023-06-05T14:18:58.978Z,98334.19
2023-06-05T14:21:26.263Z,98338.53
2023-06-05T14:23:53.067Z,98330.41
2023-06-05T14:26:19.768Z,98330.47
2023-06-05T14:28:46.459Z,98337.97
2023-06-05T14:31:14.016Z,98325.66
2023-06-05T14:33:41.221Z,98327.84
2023-06-05T14:36:08.366Z,98328.13
2023-06-05T14:38:35.508Z,98329.91
2023-06-05T14:41:02.279Z,98326.72
2023-06-05T14:43:29.068Z,98313.25
2023-06-05T14:45:55.902Z,98324.09
2023-06-05T14:48:22.651Z,98325.59
2023-06-05T14:50:50.720Z,98321.53
2023-06-05T14:53:17.509Z,98320.41
2023-06-05T14:55:44.248Z,98325.97
2023-06-05T14:58:11.719Z,98325.91
2023-06-05T15:00:39.240Z,98322.81
2023-06-05T15:03:06.365Z,98322.19
2023-06-05T15:05:33.625Z,98316.50
2023-06-05T15:08:00.537Z,98328.63
2023-06-05T15:10:28.021Z,98330.69
2023-06-05T15:12:58.665Z,98316.06
2023-06-05T15:15:26.391Z,98326.38
2023-06-05T15:17:56.175Z,98314.59
2023-06-05T15:20:24.571Z,98313.13
2023-06-05T15:23:11.444Z,98321.06
2023-06-05T15:25:41.464Z,98307.53
2023-06-05T15:28:08.243Z,98310.16
2023-06-05T15:30:34.990Z,98303.94
2023-06-05T15:33:01.852Z,98305.66
2023-06-05T15:35:28.776Z,98304.00
2023-06-05T15:37:56.207Z,98315.66
2023-06-05T15:40:22.931Z,98307.91
2023-06-05T15:43:06.501Z,98309.88
2023-06-05T15:45:33.802Z,98307.59
2023-06-05T15:48:00.924Z,98312.94
2023-06-05T15:50:27.833Z,98308.81
2023-06-05T15:52:54.766Z,98306.06
2023-06-05T15:55:21.660Z,98303.56
2023-06-05T15:57:49.471Z,98303.56
2023-06-05T16:00:18.375Z,98305.66
2023-06-05T16:02:45.884Z,98301.34
2023-06-05T16:05:13.212Z,98306.50
2023-06-05T16:07:40.588Z,98297.47
2023-06-05T16:10:07.794Z,98296.78
2023-06-05T16:12:34.712Z,98296.19
2023-06-05T16:15:01.776Z,98292.75
2023-06-05T16:17:29.001Z,98291.03
2023-06-05T16:19:58.330Z,98286.91
2023-06-05T16:22:25.677Z,98293.47
2023-06-05T16:24:52.966Z,98290.59
2023-06-05T16:27:20.715Z,98285.16
2023-06-05T16:29:47.563Z,98289.72
2023-06-05T16:32:14.602Z,98285.91
2023-06-05T16:34:41.905Z,98289.19
2023-06-05T16:37:09.053Z,98281.88
2023-06-05T16:39:36.235Z,98294.88
2023-06-05T16:42:03.922Z,98287.28
2023-06-05T16:44:31.117Z,98299.56
2023-06-05T16:46:57.998Z,98290.69
2023-06-05T16:49:24.820Z,98303.78
2023-06-05T16:51:51.673Z,98297.91
2023-06-05T16:54:18.780Z,98306.06
2023-06-05T16:56:45.512Z,98306.91
2023-06-05T16:59:13.436Z,98306.78
2023-06-05T17:01:40.305Z,98306.31
2023-06-05T17:04:08.890Z,98304.19
2023-06-05T17:06:36.696Z,98314.75
2023-06-05T17:09:04.545Z,98316.78
2023-06-05T17:11:32.102Z,98319.31
2023-06-05T17:13:59.407Z,98309.75
2023-06-05T17:16:26.287Z,98309.75
2023-06-05T17:18:53.096Z,98313.44
2023-06-05T17:21:20.363Z,98308.00
2023-06-05T17:23:48.909Z,98312.16
2023-06-05T17:26:16.454Z,98302.56
2023-06-05T17:28:43.301Z,98299.56
2023-06-05T17:31:10.511Z,98298.38
2023-06-05T17:33:37.504Z,98306.59
2023-06-05T17:36:04.474Z,98302.16
2023-06-05T17:38:31.471Z,98307.22
2023-06-05T17:40:58.375Z,98302.31
2023-06-05T17:43:25.181Z,98310.38
2023-06-05T17:45:51.996Z,98300.78
2023-06-05T17:48:18.897Z,98301.56
2023-06-05T17:50:46.073Z,98311.75
2023-06-05T17:53:13.025Z,98307.31
2023-06-05T17:55:39.954Z,98302.31
2023-06-05T17:58:06.698Z,98309.53
2023-06-05T18:00:33.731Z,98306.06
2023-06-05T18:03:00.907Z,98307.41
2023-06-05T18:05:27.829Z,98306.34
2023-06-05T18:07:54.595Z,98311.72
2023-06-05T18:10:21.948Z,98312.00
2023-06-05T18:12:48.740Z,98308.16
2023-06-05T18:15:15.703Z,98311.50
2023-06-05T18:17:42.451Z,98301.66
2023-06-05T18:20:09.803Z,98311.28
2023-06-05T18:22:36.657Z,98300.88
2023-06-05T18:25:04.063Z,98301.50
2023-06-05T18:27:31.166Z,98304.78
2023-06-05T18:29:57.989Z,98315.34
2023-06-05T18:32:25.044Z,98310.31
2023-06-05T18:34:51.886Z,98312.66
2023-06-05T18:37:18.681Z,98315.25
2023-06-05T18:39:45.863Z,98309.97
2023-06-05T18:42:12.710Z,98313.41
2023-06-05T18:44:39.492Z,98322.25
2023-06-05T18:47:09.014Z,98311.09
2023-06-05T18:49:36.433Z,98318.22
2023-06-05T18:52:03.337Z,98312.44
2023-06-05T18:54:30.111Z,98316.47
2023-06-05T18:56:57.060Z,98311.16
2023-06-05T18:59:23.796Z,98312.25
2023-06-05T19:01:50.683Z,98307.97
2023-06-05T19:04:17.622Z,98309.03
2023-06-05T19:06:44.474Z,98321.56
2023-06-05T19:09:11.440Z,98321.38
2023-06-05T19:11:40.838Z,98329.09
2023-06-05T19:14:07.630Z,98319.75
2023-06-05T19:16:34.968Z,98322.94
2023-06-05T19:19:01.874Z,98321.34
2023-06-05T19:21:28.593Z,98320.50
2023-06-05T19:23:55.404Z,98327.03
2023-06-05T19:26:22.725Z,98325.41
2023-06-05T19:28:49.490Z,98323.13
2023-06-05T19:31:16.609Z,98328.78
2023-06-05T19:33:43.541Z,98325.09
2023-06-05T19:36:10.440Z,98325.16
2023-06-05T19:38:37.272Z,98331.53
2023-06-05T19:41:05.027Z,98334.09
2023-06-05T19:43:32.088Z,98329.56
2023-06-05T19:45:58.863Z,98334.34
2023-06-05T19:48:25.608Z,98331.09
2023-06-05T19:50:52.467Z,98347.34
2023-06-05T19:53:19.343Z,98350.91
2023-06-05T19:55:46.177Z,98357.59
2023-06-05T19:58:13.021Z,98369.00
2023-06-05T20:00:39.857Z,98360.81
2023-06-05T20:03:06.746Z,98368.84
2023-06-05T20:05:33.742Z,98375.75
2023-06-05T20:08:00.582Z,98368.09
2023-06-05T20:10:27.404Z,98373.94
2023-06-05T20:12:54.152Z,98377.38
2023-06-05T20:15:21.196Z,98376.63
2023-06-05T20:17:48.077Z,98387.88
2023-06-05T20:20:15.317Z,98386.97
2023-06-05T20:22:42.136Z,98386.72
2023-06-05T20:25:09.704Z,98391.31
2023-06-05T20:27:38.346Z,98388.09
2023-06-05T20:30:06.922Z,98398.97
2023-06-05T20:32:33.800Z,98401.22
2023-06-05T20:35:00.583Z,98397.97
2023-06-05T20:37:31.246Z,98398.06
2023-06-05T20:39:59.731Z,98409.75
2023-06-05T20:42:28.464Z,98403.94
2023-06-05T20:44:58.656Z,98403.06
2023-06-05T20:47:26.539Z,98406.22
2023-06-05T20:49:58.768Z,98404.59
2023-06-05T20:52:25.832Z,98405.78
2023-06-05T20:54:52.662Z,98408.59
2023-06-05T20:57:21.318Z,98411.06
2023-06-05T20:59:51.606Z,98408.75
2023-06-05T21:02:18.474Z,98416.16
2023-06-05T21:04:46.212Z,98415.91
2023-06-05T21:07:13.033Z,98420.53
2023-06-05T21:09:40.887Z,98418.81
2023-06-05T21:12:08.512Z,98417.94
2023-06-05T21:14:38.685Z,98421.09
2023-06-05T21:17:07.285Z,98415.16
2023-06-05T21:19:34.225Z,98418.91
2023-06-05T21:22:02.607Z,98416.25
2023-06-05T21:24:29.321Z,98415.88
2023-06-05T21:26:57.017Z,98423.53
2023-06-05T21:29:24.094Z,98413.19
2023-06-05T21:31:51.169Z,98408.97
2023-06-05T21:34:18.743Z,98418.06
2023-06-05T21:36:46.208Z,98410.19
2023-06-05T21:39:16.742Z,98405.63
2023-06-05T21:41:44.472Z,98411.97
2023-06-05T21:44:11.448Z,98409.06
2023-06-05T21:46:38.344Z,98407.16
2023-06-05T21:49:05.661Z,98413.19
2023-06-05T21:51:34.523Z,98410.41
2023-06-05T21:54:01.995Z,98408.59
2023-06-05T21:56:28.795Z,98412.03
2023-06-05T21:58:55.788Z,98407.53
2023-06-05T22:01:22.695Z,98408.78
2023-06-05T22:03:50.209Z,98415.59
2023-06-05T22:06:20.098Z,98414.72
2023-06-05T22:08:47.384Z,98408.69
2023-06-05T22:11:14.888Z,98405.44
2023-06-05T22:13:43.114Z,98411.75
2023-06-05T22:16:10.272Z,98407.91
2023-06-05T22:18:42.310Z,98408.47
2023-06-05T22:21:13.802Z,98412.16
2023-06-05T22:23:43.156Z,98415.59
2023-06-05T22:26:09.971Z,98411.75
2023-06-05T22:28:36.854Z,98415.50
2023-06-05T22:31:03.850Z,98421.16
2023-06-05T22:33:33.707Z,98421.22
2023-06-05T22:36:02.054Z,98422.56
2023-06-05T22:38:31.942Z,98420.00
2023-06-05T22:40:58.686Z,98423.22
2023-06-05T22:43:25.484Z,98418.13
2023-06-05T22:45:52.290Z,98424.41
2023-06-05T22:48:20.621Z,98427.81
2023-06-05T22:50:54.336Z,98423.31
2023-06-05T22:53:22.119Z,98422.53
2023-06-05T22:55:48.932Z,98429.81
2023-06-05T22:58:15.681Z,98427.16
2023-06-05T23:00:43.496Z,98427.03
2023-06-05T23:03:11.159Z,98426.22
2023-06-05T23:05:38.053Z,98426.25
2023-06-05T23:08:04.879Z,98428.94
2023-06-05T23:10:31.729Z,98427.56
2023-06-05T23:12:58.437Z,98427.25
2023-06-05T23:15:28.005Z,98429.16
2023-06-05T23:17:55.077Z,98427.59
2023-06-05T23:20:21.913Z,98427.69
2023-06-05T23:22:48.701Z,98435.19
2023-06-05T23:25:17.671Z,98430.34
2023-06-05T23:27:44.449Z,98429.47
2023-06-05T23:30:11.733Z,98434.41
2023-06-05T23:32:38.652Z,98425.13
2023-06-05T23:35:05.644Z,98426.38
2023-06-05T23:37:32.504Z,98429.91
2023-06-05T23:39:59.247Z,98437.34
2023-06-05T23:42:27.268Z,98427.16
2023-06-05T23:44:54.070Z,98431.78
2023-06-05T23:47:21.669Z,98424.63
2023-06-05T23:49:48.844Z,98428.19
2023-06-05T23:52:15.719Z,98418.56
2023-06-05T23:54:42.477Z,98418.06
2023-06-05T23:57:09.244Z,98414.19
2023-06-05T23:59:36.055Z,98411.75
